Arendahl, Minnesota
Current Conditions -  °F | °C
As of 8:35 AM on Thursday 23 Oct 2014 (Local Time) from KFKA Reporting Station
Light Rain Light Rain  
Wind Chill: 40°   Ceiling: 500
Heat Index: 46°   Visibility: 2.5mi
Dew Point: 45°   Wind: 13mph
Humidity: 95%   Direction: 170°S
Pressure: 30.03"   Gusts: NA
Location:  43.7298°N, 91.8267°W
Report Text: KFKA 231335Z AUTO 17011KT 2 1/2SM -RA BKN005 BKN011 OVC026 08/07 A3003 RMK AO2 P0003 T00790071
Loading
Personal Weather Stations






























Interactive Weather Map
Tropical Storm Tracking
New forecast layout! Learn more

10-Day Weather Forecast

Advertisements
Track Severe Weather on mobile